Merced, California
Current Conditions -  °F | °C
As of 12:53 PM on Saturday 25 Oct 2014 (Local Time) from KMCE Reporting Station
Broken Clouds Broken Clouds  
Wind Chill: 75°   Ceiling: 6000
Heat Index: 75°   Visibility: 10mi
Dew Point: 53°   Wind: 17mph
Humidity: 46%   Direction: 280°W
Pressure: 30.07"   Gusts: 24mph
Location:  37.3°N, 120.48°W
Report Text: KMCE 251953Z AUTO 28015G21KT 10SM SCT040 BKN060 24/12 A3007 RMK AO2 SLP180 T02390117
Loading
Personal Weather Stations






























Interactive Weather Map New forecast layout! Learn more

10-Day Weather Forecast

Advertisements
Track Severe Weather on mobile